createdAt,value
2023-06-09T00:01:17.892Z,8.20
2023-06-09T00:05:15.896Z,9.00
2023-06-09T00:09:13.867Z,8.60
2023-06-09T00:13:11.865Z,9.00
2023-06-09T00:17:11.102Z,9.10
2023-06-09T00:21:08.965Z,9.10
2023-06-09T00:25:07.067Z,9.70
2023-06-09T00:29:04.898Z,8.60
2023-06-09T00:33:02.911Z,9.10
2023-06-09T00:37:00.847Z,9.50
2023-06-09T00:40:58.855Z,10.30
2023-06-09T00:44:59.388Z,9.90
2023-06-09T00:48:56.822Z,9.60
2023-06-09T00:52:55.919Z,11.30
2023-06-09T00:56:54.842Z,10.10
2023-06-09T01:00:52.900Z,10.00
2023-06-09T01:04:56.844Z,10.30
2023-06-09T01:09:13.838Z,11.10
2023-06-09T01:13:18.828Z,10.40
2023-06-09T01:17:26.895Z,10.80
2023-06-09T01:21:42.918Z,9.60
2023-06-09T01:25:47.799Z,11.20
2023-06-09T01:29:48.751Z,10.70
2023-06-09T01:33:46.821Z,11.30
2023-06-09T01:37:44.778Z,12.10
2023-06-09T01:41:42.801Z,11.80
2023-06-09T01:45:40.802Z,12.50
2023-06-09T01:49:52.732Z,12.20
2023-06-09T01:53:53.755Z,12.60
2023-06-09T01:58:08.839Z,12.10
2023-06-09T02:02:07.811Z,12.70
2023-06-09T02:06:09.760Z,12.60
2023-06-09T02:10:07.754Z,12.70
2023-06-09T02:14:09.745Z,12.40
2023-06-09T02:18:09.816Z,12.80
2023-06-09T02:22:07.755Z,13.70
2023-06-09T02:26:15.743Z,12.40
2023-06-09T02:30:13.724Z,13.50
2023-06-09T02:34:11.694Z,13.80
2023-06-09T02:38:09.740Z,13.20
2023-06-09T02:42:07.701Z,14.20
2023-06-09T02:46:05.743Z,12.80
2023-06-09T02:50:03.695Z,13.40
2023-06-09T02:54:01.708Z,13.40
2023-06-09T02:57:59.713Z,13.50
2023-06-09T03:01:57.761Z,12.90
2023-06-09T03:05:55.655Z,13.70
2023-06-09T03:09:53.712Z,13.80
2023-06-09T03:13:51.676Z,13.40
2023-06-09T03:17:50.781Z,14.40
2023-06-09T03:21:51.677Z,14.50
2023-06-09T03:25:49.684Z,14.30
2023-06-09T03:29:50.725Z,14.30
2023-06-09T03:33:48.672Z,14.80
2023-06-09T03:37:46.654Z,13.50
2023-06-09T03:41:44.672Z,14.50
2023-06-09T03:45:42.637Z,14.10
2023-06-09T03:49:40.635Z,13.50
2023-06-09T03:53:38.650Z,13.80
2023-06-09T03:57:36.637Z,14.20
2023-06-09T04:01:35.720Z,13.60
2023-06-09T04:05:34.781Z,14.90
2023-06-09T04:09:32.640Z,14.30
2023-06-09T04:13:30.671Z,14.10
2023-06-09T04:17:29.697Z,13.80
2023-06-09T04:21:28.652Z,12.90
2023-06-09T04:25:27.805Z,12.80
2023-06-09T04:29:30.721Z,13.80
2023-06-09T04:33:28.619Z,13.40
2023-06-09T04:37:26.602Z,13.50
2023-06-09T04:41:25.685Z,13.50
2023-06-09T04:45:24.617Z,12.80
2023-06-09T04:49:25.629Z,12.20
2023-06-09T04:53:24.394Z,13.60
2023-06-09T04:57:25.565Z,13.00
2023-06-09T05:01:23.691Z,13.20
2023-06-09T05:05:21.655Z,13.80
2023-06-09T05:09:21.650Z,13.90
2023-06-09T05:13:19.561Z,14.20
2023-06-09T05:17:17.611Z,14.20
2023-06-09T05:21:15.566Z,14.40
2023-06-09T05:25:17.660Z,15.40
2023-06-09T05:29:16.550Z,15.30
2023-06-09T05:33:14.576Z,15.60
2023-06-09T05:37:12.578Z,15.80
2023-06-09T05:41:10.592Z,15.80
2023-06-09T05:45:08.520Z,15.80
2023-06-09T05:49:06.587Z,15.50
2023-06-09T05:53:04.521Z,16.10
2023-06-09T05:57:02.618Z,16.30
2023-06-09T06:00:40.352Z,15.80
2023-06-09T06:04:04.307Z,16.70
2023-06-09T06:07:28.505Z,17.30
2023-06-09T06:10:53.855Z,16.60
2023-06-09T06:14:17.793Z,16.60
2023-06-09T06:17:42.009Z,16.60
2023-06-09T06:21:06.594Z,16.90
2023-06-09T06:24:30.837Z,17.20
2023-06-09T06:27:54.871Z,16.90
2023-06-09T06:31:19.179Z,17.10
2023-06-09T06:34:43.120Z,16.70
2023-06-09T06:38:07.316Z,17.20
2023-06-09T06:41:31.132Z,16.60
2023-06-09T06:44:57.181Z,17.90
2023-06-09T06:48:22.482Z,16.60
2023-06-09T06:51:46.647Z,16.60
2023-06-09T06:55:10.670Z,16.10
2023-06-09T06:58:34.822Z,16.70
2023-06-09T07:01:58.783Z,16.50
2023-06-09T07:05:23.716Z,17.40
2023-06-09T07:08:47.723Z,16.80
2023-06-09T07:12:11.845Z,17.50
2023-06-09T07:15:37.660Z,16.90
2023-06-09T07:19:01.698Z,17.40
2023-06-09T07:22:25.714Z,17.20
2023-06-09T07:25:49.637Z,17.30
2023-06-09T07:29:13.820Z,16.10
2023-06-09T07:32:38.335Z,16.60
2023-06-09T07:36:02.257Z,16.20
2023-06-09T07:39:26.368Z,15.30
2023-06-09T07:42:50.962Z,15.80
2023-06-09T07:46:15.487Z,15.60
2023-06-09T07:49:39.500Z,16.40
2023-06-09T07:53:04.542Z,15.80
2023-06-09T07:59:52.367Z,15.30
2023-06-09T08:03:17.304Z,15.70
2023-06-09T08:10:07.103Z,15.10
2023-06-09T08:13:31.812Z,16.30
2023-06-09T08:16:56.126Z,15.90
2023-06-09T08:20:20.262Z,14.60
2023-06-09T08:23:45.616Z,15.10
2023-06-09T08:27:09.934Z,15.60
2023-06-09T08:30:34.353Z,15.40
2023-06-09T08:33:58.486Z,15.80
2023-06-09T08:37:22.420Z,15.10
2023-06-09T08:40:49.049Z,16.30
2023-06-09T08:44:14.529Z,16.30
2023-06-09T08:47:39.627Z,16.10
2023-06-09T08:51:04.621Z,15.70
2023-06-09T08:54:29.275Z,15.60
2023-06-09T08:57:53.909Z,15.60
2023-06-09T09:01:22.345Z,15.80
2023-06-09T09:04:48.314Z,16.30
2023-06-09T09:08:13.675Z,17.00
2023-06-09T09:11:37.893Z,17.10
2023-06-09T09:15:08.102Z,16.90
2023-06-09T09:18:46.829Z,16.30
2023-06-09T09:22:11.580Z,16.70
2023-06-09T09:25:35.806Z,15.30
2023-06-09T09:29:18.138Z,16.00
2023-06-09T09:32:42.074Z,16.40
2023-06-09T09:36:11.229Z,16.00
2023-06-09T09:39:35.878Z,15.00
2023-06-09T09:43:03.441Z,14.80
2023-06-09T09:46:28.069Z,11.90
2023-06-09T09:49:57.965Z,10.70
2023-06-09T09:53:26.241Z,10.40
2023-06-09T09:56:50.748Z,10.20
2023-06-09T10:00:15.339Z,10.90
2023-06-09T10:03:42.904Z,9.90
2023-06-09T10:07:07.440Z,9.90
2023-06-09T10:10:32.549Z,9.60
2023-06-09T10:13:57.308Z,9.80
2023-06-09T10:17:23.046Z,10.00
2023-06-09T10:20:47.059Z,10.30
2023-06-09T10:24:14.194Z,10.70
2023-06-09T10:27:38.077Z,10.90
2023-06-09T10:31:03.752Z,10.50
2023-06-09T10:34:29.080Z,11.70
2023-06-09T10:37:53.789Z,12.10
2023-06-09T10:41:24.263Z,12.40
2023-06-09T10:45:02.886Z,12.40
2023-06-09T10:48:50.975Z,12.50
2023-06-09T10:52:39.886Z,11.80
2023-06-09T10:56:35.570Z,13.10
2023-06-09T10:59:59.532Z,12.00
2023-06-09T11:03:30.881Z,11.40
2023-06-09T11:07:13.253Z,12.10
2023-06-09T11:10:39.037Z,11.40
2023-06-09T11:14:02.979Z,12.00
2023-06-09T11:17:37.748Z,12.10
2023-06-09T11:21:16.366Z,11.60
2023-06-09T11:24:54.079Z,11.80
2023-06-09T11:28:19.410Z,11.50
2023-06-09T11:31:49.533Z,11.70
2023-06-09T11:35:32.025Z,11.60
2023-06-09T11:39:02.992Z,11.50
2023-06-09T11:42:27.004Z,10.70
2023-06-09T11:45:51.436Z,11.10
2023-06-09T11:49:15.341Z,11.50
2023-06-09T11:52:39.891Z,10.70
2023-06-09T11:56:05.123Z,10.50
2023-06-09T11:59:41.384Z,10.50
2023-06-09T12:03:11.265Z,10.30
2023-06-09T12:06:37.851Z,10.00
2023-06-09T12:10:01.926Z,9.10
2023-06-09T12:13:26.084Z,10.10
2023-06-09T12:16:51.497Z,9.80
2023-06-09T12:20:28.197Z,10.00
2023-06-09T12:23:57.326Z,6.50
2023-06-09T12:27:22.822Z,6.10
2023-06-09T12:30:49.367Z,4.90
2023-06-09T12:34:30.438Z,5.40
2023-06-09T12:37:54.541Z,5.10
2023-06-09T12:41:19.722Z,4.30
2023-06-09T12:44:49.056Z,4.80
2023-06-09T12:48:13.220Z,4.60
2023-06-09T12:51:42.561Z,5.50
2023-06-09T12:55:11.347Z,5.10
2023-06-09T12:58:35.452Z,4.90
2023-06-09T13:01:59.554Z,4.70
2023-06-09T13:05:24.789Z,5.30
2023-06-09T13:08:48.837Z,4.80
2023-06-09T13:12:12.916Z,5.40
2023-06-09T13:15:37.126Z,4.90
2023-06-09T13:19:01.518Z,5.40
2023-06-09T13:22:25.832Z,5.50
2023-06-09T13:25:50.064Z,5.20
2023-06-09T13:29:14.442Z,5.30
2023-06-09T13:32:59.262Z,5.10
2023-06-09T13:36:57.114Z,5.40
2023-06-09T13:40:55.153Z,5.30
2023-06-09T13:44:53.187Z,5.00
2023-06-09T13:48:51.293Z,5.10
2023-06-09T13:52:50.120Z,5.40
2023-06-09T13:56:49.119Z,4.70
2023-06-09T14:00:47.113Z,5.50
2023-06-09T14:04:45.262Z,5.20
2023-06-09T14:08:43.138Z,5.60
2023-06-09T14:12:41.198Z,5.90
2023-06-09T14:16:39.310Z,5.00
2023-06-09T14:20:37.164Z,5.50
2023-06-09T14:24:35.084Z,4.90
2023-06-09T14:28:33.111Z,5.20
2023-06-09T14:33:04.216Z,6.50
2023-06-09T14:37:02.106Z,5.40
2023-06-09T14:41:00.052Z,5.10
2023-06-09T14:44:58.116Z,4.70
2023-06-09T14:48:56.111Z,6.00
2023-06-09T14:52:54.121Z,5.60
2023-06-09T14:56:52.063Z,5.30
2023-06-09T15:00:51.092Z,5.30
2023-06-09T15:04:49.177Z,5.40
2023-06-09T15:08:47.193Z,5.80
2023-06-09T15:12:45.076Z,5.50
2023-06-09T15:16:43.121Z,5.60
2023-06-09T15:20:42.249Z,5.70
2023-06-09T15:24:40.090Z,6.10
2023-06-09T15:28:38.078Z,5.90
2023-06-09T15:32:36.083Z,5.70
2023-06-09T15:36:34.109Z,5.80
2023-06-09T15:40:32.049Z,5.60
2023-06-09T15:44:30.058Z,6.30
2023-06-09T15:48:29.024Z,5.60
2023-06-09T15:52:27.105Z,6.20
2023-06-09T15:56:24.997Z,6.50
2023-06-09T16:00:22.996Z,6.60
2023-06-09T16:04:21.137Z,6.20
2023-06-09T16:08:20.252Z,5.90
2023-06-09T16:12:18.062Z,6.10
2023-06-09T16:16:16.013Z,6.00
2023-06-09T16:20:14.138Z,6.40
2023-06-09T16:24:12.024Z,5.60
2023-06-09T16:28:10.135Z,5.50
2023-06-09T16:32:07.993Z,5.90
2023-06-09T16:36:06.160Z,5.70
2023-06-09T16:40:04.104Z,5.90
2023-06-09T16:44:20.055Z,5.90
2023-06-09T16:48:20.954Z,5.90
2023-06-09T16:52:19.015Z,6.00
2023-06-09T16:56:17.290Z,5.90
2023-06-09T17:00:15.024Z,6.30
2023-06-09T17:04:13.027Z,6.60
2023-06-09T17:08:43.348Z,7.00
2023-06-09T17:12:41.923Z,8.10
2023-06-09T17:16:40.073Z,9.00
2023-06-09T17:20:37.939Z,8.50
2023-06-09T17:24:35.941Z,8.90
2023-06-09T17:28:33.946Z,8.70
2023-06-09T17:32:31.989Z,9.10
2023-06-09T17:36:30.018Z,8.80
2023-06-09T17:40:28.994Z,8.60
2023-06-09T17:44:26.921Z,7.60
2023-06-09T17:48:25.027Z,7.40
2023-06-09T17:52:25.993Z,8.40
2023-06-09T17:56:23.946Z,8.60
2023-06-09T18:00:21.915Z,8.70
2023-06-09T18:04:20.000Z,7.90
2023-06-09T18:08:17.904Z,7.10
2023-06-09T18:12:15.974Z,7.00
2023-06-09T18:16:16.950Z,6.60
2023-06-09T18:20:32.913Z,5.20
2023-06-09T18:24:30.919Z,5.00
2023-06-09T18:28:28.935Z,5.50
2023-06-09T18:32:26.981Z,5.20
2023-06-09T18:36:24.977Z,5.90
2023-06-09T18:40:22.866Z,6.60
2023-06-09T18:44:28.930Z,7.10
2023-06-09T18:48:26.920Z,6.50
2023-06-09T18:52:24.875Z,5.40
2023-06-09T18:56:23.102Z,5.70
2023-06-09T19:00:23.008Z,6.70
2023-06-09T19:04:20.837Z,7.70
2023-06-09T19:08:18.952Z,7.40
2023-06-09T19:16:36.839Z,8.30
2023-06-09T19:20:36.883Z,9.50
2023-06-09T19:24:34.846Z,9.10
2023-06-09T19:28:32.813Z,8.60
2023-06-09T19:32:31.914Z,9.10
2023-06-09T19:36:29.813Z,9.10
2023-06-09T19:40:28.873Z,9.80
2023-06-09T19:44:26.852Z,8.30
2023-06-09T19:48:24.920Z,8.60
2023-06-09T19:52:23.799Z,7.20
2023-06-09T19:56:21.792Z,7.40
2023-06-09T20:00:21.817Z,6.30
2023-06-09T20:04:19.899Z,5.70
2023-06-09T20:08:17.787Z,6.10
2023-06-09T20:12:15.880Z,6.60
2023-06-09T20:16:13.811Z,6.20
2023-06-09T20:20:11.869Z,6.90
2023-06-09T20:24:10.844Z,6.50
2023-06-09T20:28:08.793Z,7.40
2023-06-09T20:32:06.807Z,6.70
2023-06-09T20:36:04.836Z,6.10
2023-06-09T20:40:02.746Z,7.10
2023-06-09T20:44:00.775Z,6.70
2023-06-09T20:47:58.744Z,6.20
2023-06-09T20:51:57.815Z,5.60
2023-06-09T20:55:56.714Z,6.40
2023-06-09T20:59:54.757Z,6.50
2023-06-09T21:03:53.897Z,6.10
2023-06-09T21:07:51.741Z,5.90
2023-06-09T21:11:49.773Z,6.10
2023-06-09T21:15:47.804Z,5.90
2023-06-09T21:19:45.938Z,6.10
2023-06-09T21:23:43.818Z,6.80
2023-06-09T21:27:41.743Z,6.50
2023-06-09T21:31:39.767Z,5.90
2023-06-09T21:35:37.755Z,5.90
2023-06-09T21:39:35.725Z,5.90
2023-06-09T21:43:33.734Z,6.90
2023-06-09T21:47:34.719Z,6.50
2023-06-09T21:51:32.664Z,6.20
2023-06-09T21:55:30.935Z,6.00
2023-06-09T21:59:28.671Z,5.50
2023-06-09T22:03:26.702Z,6.00
2023-06-09T22:07:24.714Z,6.00
2023-06-09T22:11:22.675Z,6.00
2023-06-09T22:15:26.039Z,6.20
2023-06-09T22:19:27.696Z,5.80
2023-06-09T22:23:25.674Z,5.60
2023-06-09T22:27:24.718Z,4.90
2023-06-09T22:31:22.684Z,5.70
2023-06-09T22:35:21.654Z,5.90
2023-06-09T22:39:20.647Z,6.00
2023-06-09T22:43:18.662Z,6.70
2023-06-09T22:47:16.650Z,5.70
2023-06-09T22:51:14.738Z,5.90
2023-06-09T22:55:12.779Z,6.40
2023-06-09T22:59:10.676Z,6.70
2023-06-09T23:03:08.721Z,6.40
2023-06-09T23:07:06.682Z,6.60
2023-06-09T23:15:23.633Z,6.80
2023-06-09T23:19:23.626Z,7.40
2023-06-09T23:23:22.644Z,6.50
2023-06-09T23:27:20.637Z,7.20
2023-06-09T23:31:18.628Z,7.00
2023-06-09T23:35:16.584Z,8.00
2023-06-09T23:39:14.671Z,7.50
2023-06-09T23:43:12.588Z,6.70
2023-06-09T23:47:10.589Z,7.00
2023-06-09T23:51:08.581Z,7.50
2023-06-09T23:55:06.729Z,7.00
2023-06-09T23:59:04.587Z,7.50
